Terminal Aerodrome Forecast
Issued by NWS Mt. Holly, NJ

Home | Current Version | Previous Version | Text Only | Print | Product List | Glossary On
Versions: 1 2 3 4 5 6 7 8 9 10 11 12 13 14 15 16 17 18 19 20 21 22 23 24 25 26
000
FTUS41 KPHI 250910 AAA
TAFILG
TAF AMD
KILG 250910Z 2509/2606 08012KT 6SM -RA BR OVC008
      TEMPO 2509/2511 3SM RA BR OVC004
     FM251100 07012KT P6SM -SHRA OVC008
     FM251500 10008KT P6SM OVC015
     FM252000 16008KT 5SM -SHRA BR BKN020 PROB30 2521/2524 TSRA
      OVC010CB
     FM260100 17006KT 5SM -SHRA BR BKN045
     FM260200 23006KT P6SM BKN045
     FM260300 26006KT P6SM BKN050=

USA.gov is the U.S. government's official web portal to all federal, state and local government web resources and services.